sensor_id;sensor_type;location;lat;lon;timestamp;P1;durP1;ratioP1;P2;durP2;ratioP2
23670;SDS011;12012;51.998;7.614;2024-02-21T00:00:01;35.17;;;14.90;;
23670;SDS011;12012;51.998;7.614;2024-02-21T00:02:27;33.72;;;14.88;;
23670;SDS011;12012;51.998;7.614;2024-02-21T00:04:53;35.20;;;14.75;;
23670;SDS011;12012;51.998;7.614;2024-02-21T00:07:18;33.83;;;14.80;;
23670;SDS011;12012;51.998;7.614;2024-02-21T00:09:44;33.35;;;14.52;;
23670;SDS011;12012;51.998;7.614;2024-02-21T00:12:10;28.20;;;14.77;;
23670;SDS011;12012;51.998;7.614;2024-02-21T00:14:35;37.47;;;15.38;;
23670;SDS011;12012;51.998;7.614;2024-02-21T00:17:01;32.60;;;14.73;;
23670;SDS011;12012;51.998;7.614;2024-02-21T00:19:26;39.05;;;14.48;;
23670;SDS011;12012;51.998;7.614;2024-02-21T00:21:52;33.85;;;14.57;;
23670;SDS011;12012;51.998;7.614;2024-02-21T00:24:17;34.30;;;15.68;;
23670;SDS011;12012;51.998;7.614;2024-02-21T00:26:43;34.45;;;14.75;;
23670;SDS011;12012;51.998;7.614;2024-02-21T00:29:08;36.47;;;15.63;;
23670;SDS011;12012;51.998;7.614;2024-02-21T00:31:34;29.20;;;14.43;;
23670;SDS011;12012;51.998;7.614;2024-02-21T00:33:59;37.60;;;16.23;;
23670;SDS011;12012;51.998;7.614;2024-02-21T00:36:25;45.92;;;16.50;;
23670;SDS011;12012;51.998;7.614;2024-02-21T00:38:50;31.13;;;15.18;;
23670;SDS011;12012;51.998;7.614;2024-02-21T00:41:16;41.55;;;15.68;;
23670;SDS011;12012;51.998;7.614;2024-02-21T00:43:42;42.00;;;16.05;;
23670;SDS011;12012;51.998;7.614;2024-02-21T00:46:07;35.90;;;16.33;;
23670;SDS011;12012;51.998;7.614;2024-02-21T00:48:33;36.28;;;15.93;;
23670;SDS011;12012;51.998;7.614;2024-02-21T00:50:59;37.13;;;15.98;;
23670;SDS011;12012;51.998;7.614;2024-02-21T00:53:24;35.78;;;16.30;;
23670;SDS011;12012;51.998;7.614;2024-02-21T00:55:50;38.05;;;15.80;;
23670;SDS011;12012;51.998;7.614;2024-02-21T00:58:15;37.33;;;16.92;;
23670;SDS011;12012;51.998;7.614;2024-02-21T01:00:41;39.08;;;17.17;;
23670;SDS011;12012;51.998;7.614;2024-02-21T01:03:06;42.67;;;17.90;;
23670;SDS011;12012;51.998;7.614;2024-02-21T01:05:32;41.63;;;17.23;;
23670;SDS011;12012;51.998;7.614;2024-02-21T01:07:58;39.78;;;17.98;;
23670;SDS011;12012;51.998;7.614;2024-02-21T01:10:23;39.50;;;17.50;;
23670;SDS011;12012;51.998;7.614;2024-02-21T01:12:49;40.15;;;18.40;;
23670;SDS011;12012;51.998;7.614;2024-02-21T01:15:14;39.08;;;18.05;;
23670;SDS011;12012;51.998;7.614;2024-02-21T01:17:40;47.75;;;19.08;;
23670;SDS011;12012;51.998;7.614;2024-02-21T01:20:06;37.78;;;17.83;;
23670;SDS011;12012;51.998;7.614;2024-02-21T01:22:32;42.40;;;18.60;;
23670;SDS011;12012;51.998;7.614;2024-02-21T01:24:58;39.53;;;18.33;;
23670;SDS011;12012;51.998;7.614;2024-02-21T01:27:23;44.85;;;19.60;;
23670;SDS011;12012;51.998;7.614;2024-02-21T01:29:49;44.60;;;19.50;;
23670;SDS011;12012;51.998;7.614;2024-02-21T01:32:15;42.00;;;18.73;;
23670;SDS011;12012;51.998;7.614;2024-02-21T01:34:40;43.63;;;19.10;;
23670;SDS011;12012;51.998;7.614;2024-02-21T01:37:06;42.05;;;18.25;;
23670;SDS011;12012;51.998;7.614;2024-02-21T01:39:32;46.65;;;20.50;;
23670;SDS011;12012;51.998;7.614;2024-02-21T01:41:58;41.45;;;19.75;;
23670;SDS011;12012;51.998;7.614;2024-02-21T01:44:24;42.70;;;19.52;;
23670;SDS011;12012;51.998;7.614;2024-02-21T01:46:50;44.08;;;20.02;;
23670;SDS011;12012;51.998;7.614;2024-02-21T01:49:16;42.30;;;18.98;;
23670;SDS011;12012;51.998;7.614;2024-02-21T01:51:42;48.53;;;19.20;;
23670;SDS011;12012;51.998;7.614;2024-02-21T01:54:09;34.38;;;17.20;;
23670;SDS011;12012;51.998;7.614;2024-02-21T01:56:35;43.03;;;18.73;;
23670;SDS011;12012;51.998;7.614;2024-02-21T01:59:01;40.00;;;18.42;;
23670;SDS011;12012;51.998;7.614;2024-02-21T02:01:27;39.33;;;18.40;;
23670;SDS011;12012;51.998;7.614;2024-02-21T02:03:54;43.47;;;19.17;;
23670;SDS011;12012;51.998;7.614;2024-02-21T02:06:20;42.13;;;18.15;;
23670;SDS011;12012;51.998;7.614;2024-02-21T02:08:45;41.30;;;19.25;;
23670;SDS011;12012;51.998;7.614;2024-02-21T02:11:13;40.90;;;19.70;;
23670;SDS011;12012;51.998;7.614;2024-02-21T02:13:39;39.90;;;17.75;;
23670;SDS011;12012;51.998;7.614;2024-02-21T02:16:05;45.28;;;19.73;;
23670;SDS011;12012;51.998;7.614;2024-02-21T02:18:30;37.78;;;18.63;;
23670;SDS011;12012;51.998;7.614;2024-02-21T02:20:56;42.80;;;17.98;;
23670;SDS011;12012;51.998;7.614;2024-02-21T02:23:29;42.88;;;19.45;;
23670;SDS011;12012;51.998;7.614;2024-02-21T02:25:56;47.40;;;19.13;;
23670;SDS011;12012;51.998;7.614;2024-02-21T02:28:22;41.05;;;19.10;;
23670;SDS011;12012;51.998;7.614;2024-02-21T02:30:47;39.97;;;18.20;;
23670;SDS011;12012;51.998;7.614;2024-02-21T02:33:13;37.95;;;17.67;;
23670;SDS011;12012;51.998;7.614;2024-02-21T02:35:39;38.55;;;18.27;;
23670;SDS011;12012;51.998;7.614;2024-02-21T02:38:05;41.63;;;18.38;;
23670;SDS011;12012;51.998;7.614;2024-02-21T02:40:34;38.83;;;16.85;;
23670;SDS011;12012;51.998;7.614;2024-02-21T02:43:00;46.28;;;18.02;;
23670;SDS011;12012;51.998;7.614;2024-02-21T02:45:26;44.13;;;18.92;;
23670;SDS011;12012;51.998;7.614;2024-02-21T02:47:52;42.85;;;17.05;;
23670;SDS011;12012;51.998;7.614;2024-02-21T02:50:22;36.60;;;16.90;;
23670;SDS011;12012;51.998;7.614;2024-02-21T02:52:51;34.47;;;16.55;;
23670;SDS011;12012;51.998;7.614;2024-02-21T02:55:17;46.22;;;17.92;;
23670;SDS011;12012;51.998;7.614;2024-02-21T02:57:43;46.70;;;17.63;;
23670;SDS011;12012;51.998;7.614;2024-02-21T03:00:12;38.72;;;18.30;;
23670;SDS011;12012;51.998;7.614;2024-02-21T03:02:39;43.80;;;17.38;;
23670;SDS011;12012;51.998;7.614;2024-02-21T03:05:16;42.00;;;17.98;;
23670;SDS011;12012;51.998;7.614;2024-02-21T03:07:46;37.47;;;18.50;;
23670;SDS011;12012;51.998;7.614;2024-02-21T03:10:13;40.70;;;18.35;;
23670;SDS011;12012;51.998;7.614;2024-02-21T03:12:41;37.92;;;17.35;;
23670;SDS011;12012;51.998;7.614;2024-02-21T03:15:07;39.13;;;18.65;;
23670;SDS011;12012;51.998;7.614;2024-02-21T03:17:33;41.05;;;18.30;;
23670;SDS011;12012;51.998;7.614;2024-02-21T03:19:59;40.75;;;18.23;;
23670;SDS011;12012;51.998;7.614;2024-02-21T03:22:25;41.67;;;18.73;;
23670;SDS011;12012;51.998;7.614;2024-02-21T03:24:51;35.60;;;17.88;;
23670;SDS011;12012;51.998;7.614;2024-02-21T03:27:17;42.17;;;18.83;;
23670;SDS011;12012;51.998;7.614;2024-02-21T03:29:42;39.20;;;19.58;;
23670;SDS011;12012;51.998;7.614;2024-02-21T03:32:08;44.05;;;18.38;;
23670;SDS011;12012;51.998;7.614;2024-02-21T03:34:34;39.90;;;17.27;;
23670;SDS011;12012;51.998;7.614;2024-02-21T03:37:00;38.22;;;17.95;;
23670;SDS011;12012;51.998;7.614;2024-02-21T03:39:26;37.40;;;16.38;;
23670;SDS011;12012;51.998;7.614;2024-02-21T03:41:52;38.58;;;17.48;;
23670;SDS011;12012;51.998;7.614;2024-02-21T03:44:17;38.53;;;17.02;;
23670;SDS011;12012;51.998;7.614;2024-02-21T03:46:43;37.67;;;17.38;;
23670;SDS011;12012;51.998;7.614;2024-02-21T03:49:08;45.50;;;17.85;;
23670;SDS011;12012;51.998;7.614;2024-02-21T03:51:34;30.15;;;17.35;;
23670;SDS011;12012;51.998;7.614;2024-02-21T03:54:00;33.88;;;16.98;;
23670;SDS011;12012;51.998;7.614;2024-02-21T03:56:25;33.25;;;15.95;;
23670;SDS011;12012;51.998;7.614;2024-02-21T03:58:51;34.20;;;17.10;;
23670;SDS011;12012;51.998;7.614;2024-02-21T04:01:16;38.50;;;16.45;;
23670;SDS011;12012;51.998;7.614;2024-02-21T04:03:43;31.00;;;16.35;;
23670;SDS011;12012;51.998;7.614;2024-02-21T04:06:09;31.48;;;16.25;;
23670;SDS011;12012;51.998;7.614;2024-02-21T04:08:35;32.17;;;16.80;;
23670;SDS011;12012;51.998;7.614;2024-02-21T04:11:00;38.92;;;16.90;;
23670;SDS011;12012;51.998;7.614;2024-02-21T04:13:26;36.05;;;16.52;;
23670;SDS011;12012;51.998;7.614;2024-02-21T04:15:51;41.28;;;17.75;;
23670;SDS011;12012;51.998;7.614;2024-02-21T04:18:17;33.85;;;16.20;;
23670;SDS011;12012;51.998;7.614;2024-02-21T04:20:43;32.70;;;15.88;;
23670;SDS011;12012;51.998;7.614;2024-02-21T04:23:08;39.60;;;16.60;;
23670;SDS011;12012;51.998;7.614;2024-02-21T04:25:34;38.10;;;16.20;;
23670;SDS011;12012;51.998;7.614;2024-02-21T04:27:59;29.33;;;14.82;;
23670;SDS011;12012;51.998;7.614;2024-02-21T04:30:25;34.67;;;15.93;;
23670;SDS011;12012;51.998;7.614;2024-02-21T04:32:51;35.55;;;16.15;;
23670;SDS011;12012;51.998;7.614;2024-02-21T04:35:16;38.15;;;15.02;;
23670;SDS011;12012;51.998;7.614;2024-02-21T04:37:42;32.90;;;14.95;;
23670;SDS011;12012;51.998;7.614;2024-02-21T04:40:07;31.40;;;15.43;;
23670;SDS011;12012;51.998;7.614;2024-02-21T04:42:34;28.35;;;13.82;;
23670;SDS011;12012;51.998;7.614;2024-02-21T04:44:59;31.58;;;15.15;;
23670;SDS011;12012;51.998;7.614;2024-02-21T04:47:25;30.75;;;14.90;;
23670;SDS011;12012;51.998;7.614;2024-02-21T04:49:51;30.98;;;15.60;;
23670;SDS011;12012;51.998;7.614;2024-02-21T04:52:17;31.48;;;15.40;;
23670;SDS011;12012;51.998;7.614;2024-02-21T04:54:42;34.20;;;15.95;;
23670;SDS011;12012;51.998;7.614;2024-02-21T04:57:08;31.85;;;15.38;;
23670;SDS011;12012;51.998;7.614;2024-02-21T04:59:35;31.75;;;15.35;;
23670;SDS011;12012;51.998;7.614;2024-02-21T05:02:01;36.85;;;15.65;;
23670;SDS011;12012;51.998;7.614;2024-02-21T05:04:26;27.70;;;14.43;;
23670;SDS011;12012;51.998;7.614;2024-02-21T05:06:52;32.05;;;15.27;;
23670;SDS011;12012;51.998;7.614;2024-02-21T05:09:18;30.90;;;14.95;;
23670;SDS011;12012;51.998;7.614;2024-02-21T05:11:43;37.83;;;15.05;;
23670;SDS011;12012;51.998;7.614;2024-02-21T05:14:09;29.08;;;14.57;;
23670;SDS011;12012;51.998;7.614;2024-02-21T05:16:34;31.80;;;14.60;;
23670;SDS011;12012;51.998;7.614;2024-02-21T05:19:00;32.63;;;14.77;;
23670;SDS011;12012;51.998;7.614;2024-02-21T05:21:25;33.47;;;14.50;;
23670;SDS011;12012;51.998;7.614;2024-02-21T05:23:53;31.17;;;14.23;;
23670;SDS011;12012;51.998;7.614;2024-02-21T05:26:25;29.00;;;13.65;;
23670;SDS011;12012;51.998;7.614;2024-02-21T05:28:52;32.05;;;14.70;;
23670;SDS011;12012;51.998;7.614;2024-02-21T05:31:18;31.88;;;14.27;;
23670;SDS011;12012;51.998;7.614;2024-02-21T05:33:44;27.35;;;13.30;;
23670;SDS011;12012;51.998;7.614;2024-02-21T05:36:10;28.60;;;13.30;;
23670;SDS011;12012;51.998;7.614;2024-02-21T05:38:35;35.17;;;14.27;;
23670;SDS011;12012;51.998;7.614;2024-02-21T05:41:01;32.40;;;14.10;;
23670;SDS011;12012;51.998;7.614;2024-02-21T05:43:27;33.78;;;13.95;;
23670;SDS011;12012;51.998;7.614;2024-02-21T05:45:53;29.50;;;13.50;;
23670;SDS011;12012;51.998;7.614;2024-02-21T05:48:18;27.27;;;12.73;;
23670;SDS011;12012;51.998;7.614;2024-02-21T05:50:44;28.83;;;13.98;;
23670;SDS011;12012;51.998;7.614;2024-02-21T05:53:10;28.15;;;13.90;;
23670;SDS011;12012;51.998;7.614;2024-02-21T05:55:36;36.05;;;14.25;;
23670;SDS011;12012;51.998;7.614;2024-02-21T05:58:01;27.48;;;12.90;;
23670;SDS011;12012;51.998;7.614;2024-02-21T06:00:27;28.45;;;13.20;;
23670;SDS011;12012;51.998;7.614;2024-02-21T06:02:53;27.77;;;13.15;;
23670;SDS011;12012;51.998;7.614;2024-02-21T06:05:19;23.35;;;11.77;;
23670;SDS011;12012;51.998;7.614;2024-02-21T06:07:44;20.70;;;12.10;;
23670;SDS011;12012;51.998;7.614;2024-02-21T06:10:10;29.23;;;12.98;;
23670;SDS011;12012;51.998;7.614;2024-02-21T06:12:35;27.50;;;12.65;;
23670;SDS011;12012;51.998;7.614;2024-02-21T06:15:01;29.10;;;12.35;;
23670;SDS011;12012;51.998;7.614;2024-02-21T06:17:26;32.70;;;13.07;;
23670;SDS011;12012;51.998;7.614;2024-02-21T06:19:52;26.33;;;13.73;;
23670;SDS011;12012;51.998;7.614;2024-02-21T06:22:17;22.70;;;12.13;;
23670;SDS011;12012;51.998;7.614;2024-02-21T06:24:43;28.15;;;12.32;;
23670;SDS011;12012;51.998;7.614;2024-02-21T06:27:09;27.00;;;12.40;;
23670;SDS011;12012;51.998;7.614;2024-02-21T06:29:36;31.50;;;13.07;;
23670;SDS011;12012;51.998;7.614;2024-02-21T06:32:02;25.92;;;11.85;;
23670;SDS011;12012;51.998;7.614;2024-02-21T06:34:27;27.90;;;12.00;;
23670;SDS011;12012;51.998;7.614;2024-02-21T06:36:53;26.00;;;12.30;;
23670;SDS011;12012;51.998;7.614;2024-02-21T06:39:19;27.85;;;13.23;;
23670;SDS011;12012;51.998;7.614;2024-02-21T06:41:44;30.63;;;12.82;;
23670;SDS011;12012;51.998;7.614;2024-02-21T06:44:10;33.95;;;13.57;;
23670;SDS011;12012;51.998;7.614;2024-02-21T06:46:35;30.40;;;12.75;;
23670;SDS011;12012;51.998;7.614;2024-02-21T06:49:01;27.35;;;13.20;;
23670;SDS011;12012;51.998;7.614;2024-02-21T06:51:28;28.23;;;13.93;;
23670;SDS011;12012;51.998;7.614;2024-02-21T06:53:54;27.52;;;13.27;;
23670;SDS011;12012;51.998;7.614;2024-02-21T06:56:20;26.83;;;13.68;;
23670;SDS011;12012;51.998;7.614;2024-02-21T06:58:51;32.38;;;14.75;;
23670;SDS011;12012;51.998;7.614;2024-02-21T07:01:17;30.92;;;14.82;;
23670;SDS011;12012;51.998;7.614;2024-02-21T07:03:43;29.95;;;14.32;;
23670;SDS011;12012;51.998;7.614;2024-02-21T07:06:08;24.83;;;13.55;;
23670;SDS011;12012;51.998;7.614;2024-02-21T07:08:34;26.90;;;13.10;;
23670;SDS011;12012;51.998;7.614;2024-02-21T07:10:59;32.30;;;13.82;;
23670;SDS011;12012;51.998;7.614;2024-02-21T07:13:25;31.10;;;14.25;;
23670;SDS011;12012;51.998;7.614;2024-02-21T07:15:50;28.67;;;12.88;;
23670;SDS011;12012;51.998;7.614;2024-02-21T07:18:16;31.55;;;13.93;;
23670;SDS011;12012;51.998;7.614;2024-02-21T07:20:41;31.23;;;13.05;;
23670;SDS011;12012;51.998;7.614;2024-02-21T07:23:08;30.63;;;12.60;;
23670;SDS011;12012;51.998;7.614;2024-02-21T07:25:33;25.25;;;12.50;;
23670;SDS011;12012;51.998;7.614;2024-02-21T07:27:59;26.00;;;11.57;;
23670;SDS011;12012;51.998;7.614;2024-02-21T07:30:25;28.77;;;12.30;;
23670;SDS011;12012;51.998;7.614;2024-02-21T07:32:50;30.92;;;12.90;;
23670;SDS011;12012;51.998;7.614;2024-02-21T07:35:17;31.52;;;12.93;;
23670;SDS011;12012;51.998;7.614;2024-02-21T07:37:43;28.25;;;11.90;;
23670;SDS011;12012;51.998;7.614;2024-02-21T07:40:15;26.92;;;12.50;;
23670;SDS011;12012;51.998;7.614;2024-02-21T07:42:41;24.70;;;12.00;;
23670;SDS011;12012;51.998;7.614;2024-02-21T07:45:08;25.35;;;12.00;;
23670;SDS011;12012;51.998;7.614;2024-02-21T07:47:34;25.55;;;11.93;;
23670;SDS011;12012;51.998;7.614;2024-02-21T07:49:59;28.17;;;12.25;;
23670;SDS011;12012;51.998;7.614;2024-02-21T07:52:25;21.98;;;10.93;;
23670;SDS011;12012;51.998;7.614;2024-02-21T07:54:51;25.60;;;12.13;;
23670;SDS011;12012;51.998;7.614;2024-02-21T07:57:16;25.55;;;12.43;;
23670;SDS011;12012;51.998;7.614;2024-02-21T07:59:42;26.65;;;11.88;;
23670;SDS011;12012;51.998;7.614;2024-02-21T08:02:08;23.15;;;10.85;;
23670;SDS011;12012;51.998;7.614;2024-02-21T08:04:33;22.67;;;10.52;;
23670;SDS011;12012;51.998;7.614;2024-02-21T08:06:59;18.98;;;10.15;;
23670;SDS011;12012;51.998;7.614;2024-02-21T08:09:29;22.75;;;10.70;;
23670;SDS011;12012;51.998;7.614;2024-02-21T08:11:54;25.70;;;10.93;;
23670;SDS011;12012;51.998;7.614;2024-02-21T08:14:21;16.85;;;9.43;;
23670;SDS011;12012;51.998;7.614;2024-02-21T08:16:47;22.27;;;10.55;;
23670;SDS011;12012;51.998;7.614;2024-02-21T08:19:12;23.65;;;9.55;;
23670;SDS011;12012;51.998;7.614;2024-02-21T08:21:38;17.50;;;8.68;;
23670;SDS011;12012;51.998;7.614;2024-02-21T08:24:03;21.38;;;9.10;;
23670;SDS011;12012;51.998;7.614;2024-02-21T08:26:29;24.17;;;9.35;;
23670;SDS011;12012;51.998;7.614;2024-02-21T08:28:56;20.85;;;9.25;;
23670;SDS011;12012;51.998;7.614;2024-02-21T08:31:24;18.98;;;8.18;;
23670;SDS011;12012;51.998;7.614;2024-02-21T08:33:56;19.83;;;8.65;;
23670;SDS011;12012;51.998;7.614;2024-02-21T08:36:28;22.63;;;7.82;;
23670;SDS011;12012;51.998;7.614;2024-02-21T08:38:54;18.13;;;8.00;;
23670;SDS011;12012;51.998;7.614;2024-02-21T08:41:20;15.80;;;7.65;;
23670;SDS011;12012;51.998;7.614;2024-02-21T08:43:48;20.08;;;8.27;;
23670;SDS011;12012;51.998;7.614;2024-02-21T08:46:14;22.30;;;8.55;;
23670;SDS011;12012;51.998;7.614;2024-02-21T08:48:39;18.63;;;8.23;;
23670;SDS011;12012;51.998;7.614;2024-02-21T08:51:05;18.27;;;7.60;;
23670;SDS011;12012;51.998;7.614;2024-02-21T08:53:31;19.35;;;8.15;;
23670;SDS011;12012;51.998;7.614;2024-02-21T08:55:56;19.45;;;7.55;;
23670;SDS011;12012;51.998;7.614;2024-02-21T08:58:22;18.70;;;7.38;;
23670;SDS011;12012;51.998;7.614;2024-02-21T09:00:49;18.50;;;8.32;;
23670;SDS011;12012;51.998;7.614;2024-02-21T09:03:16;19.02;;;7.40;;
23670;SDS011;12012;51.998;7.614;2024-02-21T09:05:42;19.13;;;7.40;;
23670;SDS011;12012;51.998;7.614;2024-02-21T09:08:08;16.45;;;7.50;;
23670;SDS011;12012;51.998;7.614;2024-02-21T09:10:34;13.63;;;6.57;;
23670;SDS011;12012;51.998;7.614;2024-02-21T09:12:59;15.02;;;7.10;;
23670;SDS011;12012;51.998;7.614;2024-02-21T09:15:25;13.32;;;6.78;;
23670;SDS011;12012;51.998;7.614;2024-02-21T09:17:51;15.23;;;7.53;;
23670;SDS011;12012;51.998;7.614;2024-02-21T09:20:17;13.45;;;7.38;;
23670;SDS011;12012;51.998;7.614;2024-02-21T09:22:43;17.92;;;7.68;;
23670;SDS011;12012;51.998;7.614;2024-02-21T09:25:08;14.65;;;6.70;;
23670;SDS011;12012;51.998;7.614;2024-02-21T09:27:36;15.48;;;6.68;;
23670;SDS011;12012;51.998;7.614;2024-02-21T09:30:03;16.65;;;7.20;;
23670;SDS011;12012;51.998;7.614;2024-02-21T09:32:30;15.07;;;6.75;;
23670;SDS011;12012;51.998;7.614;2024-02-21T09:34:55;14.23;;;7.00;;
23670;SDS011;12012;51.998;7.614;2024-02-21T09:37:21;16.45;;;7.35;;
23670;SDS011;12012;51.998;7.614;2024-02-21T09:39:47;13.55;;;6.72;;
23670;SDS011;12012;51.998;7.614;2024-02-21T09:42:13;20.08;;;7.32;;
23670;SDS011;12012;51.998;7.614;2024-02-21T09:44:43;16.58;;;6.88;;
23670;SDS011;12012;51.998;7.614;2024-02-21T09:47:12;16.52;;;7.43;;
23670;SDS011;12012;51.998;7.614;2024-02-21T09:49:47;15.38;;;6.82;;
23670;SDS011;12012;51.998;7.614;2024-02-21T09:52:13;14.90;;;6.25;;
23670;SDS011;12012;51.998;7.614;2024-02-21T09:54:40;19.20;;;7.00;;
23670;SDS011;12012;51.998;7.614;2024-02-21T09:57:10;16.90;;;7.57;;
23670;SDS011;12012;51.998;7.614;2024-02-21T09:59:36;13.52;;;7.15;;
23670;SDS011;12012;51.998;7.614;2024-02-21T10:02:02;15.98;;;7.47;;
23670;SDS011;12012;51.998;7.614;2024-02-21T10:04:29;14.88;;;6.63;;
23670;SDS011;12012;51.998;7.614;2024-02-21T10:06:55;16.58;;;7.47;;
23670;SDS011;12012;51.998;7.614;2024-02-21T10:09:25;15.48;;;7.53;;
23670;SDS011;12012;51.998;7.614;2024-02-21T10:12:15;14.43;;;7.50;;
23670;SDS011;12012;51.998;7.614;2024-02-21T10:14:43;12.90;;;6.75;;
23670;SDS011;12012;51.998;7.614;2024-02-21T10:17:14;14.18;;;7.30;;
23670;SDS011;12012;51.998;7.614;2024-02-21T10:19:45;14.95;;;6.82;;
23670;SDS011;12012;51.998;7.614;2024-02-21T10:22:12;14.65;;;6.68;;
23670;SDS011;12012;51.998;7.614;2024-02-21T10:24:40;13.02;;;7.82;;
23670;SDS011;12012;51.998;7.614;2024-02-21T10:27:08;15.27;;;8.45;;
23670;SDS011;12012;51.998;7.614;2024-02-21T10:29:38;13.02;;;7.50;;
23670;SDS011;12012;51.998;7.614;2024-02-21T10:32:08;17.55;;;8.85;;
23670;SDS011;12012;51.998;7.614;2024-02-21T10:34:38;18.25;;;8.02;;
23670;SDS011;12012;51.998;7.614;2024-02-21T10:37:06;19.40;;;9.30;;
23670;SDS011;12012;51.998;7.614;2024-02-21T10:39:34;18.42;;;8.90;;
23670;SDS011;12012;51.998;7.614;2024-02-21T10:42:01;14.20;;;9.25;;
23670;SDS011;12012;51.998;7.614;2024-02-21T10:44:29;19.05;;;10.20;;
23670;SDS011;12012;51.998;7.614;2024-02-21T10:46:58;16.55;;;10.23;;
23670;SDS011;12012;51.998;7.614;2024-02-21T10:49:24;18.00;;;9.75;;
23670;SDS011;12012;51.998;7.614;2024-02-21T10:51:52;14.32;;;8.77;;
23670;SDS011;12012;51.998;7.614;2024-02-21T10:54:24;15.23;;;9.75;;
23670;SDS011;12012;51.998;7.614;2024-02-21T10:57:10;17.98;;;8.68;;
23670;SDS011;12012;51.998;7.614;2024-02-21T10:59:38;18.00;;;8.57;;
23670;SDS011;12012;51.998;7.614;2024-02-21T11:02:05;11.63;;;6.40;;
23670;SDS011;12012;51.998;7.614;2024-02-21T11:04:30;16.33;;;6.15;;
23670;SDS011;12012;51.998;7.614;2024-02-21T11:07:01;12.90;;;5.88;;
23670;SDS011;12012;51.998;7.614;2024-02-21T11:09:32;14.00;;;5.32;;
23670;SDS011;12012;51.998;7.614;2024-02-21T11:11:58;8.57;;;4.65;;
23670;SDS011;12012;51.998;7.614;2024-02-21T11:14:28;9.90;;;4.35;;
23670;SDS011;12012;51.998;7.614;2024-02-21T11:16:57;6.88;;;3.80;;
23670;SDS011;12012;51.998;7.614;2024-02-21T11:19:26;9.48;;;3.90;;
23670;SDS011;12012;51.998;7.614;2024-02-21T11:21:53;9.57;;;4.18;;
23670;SDS011;12012;51.998;7.614;2024-02-21T11:24:26;9.07;;;3.97;;
23670;SDS011;12012;51.998;7.614;2024-02-21T11:29:39;7.18;;;3.88;;
23670;SDS011;12012;51.998;7.614;2024-02-21T11:32:14;5.97;;;3.92;;
23670;SDS011;12012;51.998;7.614;2024-02-21T11:34:40;6.75;;;3.67;;
23670;SDS011;12012;51.998;7.614;2024-02-21T11:37:12;7.80;;;3.40;;
23670;SDS011;12012;51.998;7.614;2024-02-21T11:39:42;9.15;;;3.97;;
23670;SDS011;12012;51.998;7.614;2024-02-21T11:42:08;7.82;;;3.75;;
23670;SDS011;12012;51.998;7.614;2024-02-21T11:44:34;6.55;;;3.70;;
23670;SDS011;12012;51.998;7.614;2024-02-21T11:47:02;5.43;;;3.58;;
23670;SDS011;12012;51.998;7.614;2024-02-21T11:49:29;8.10;;;4.05;;
23670;SDS011;12012;51.998;7.614;2024-02-21T11:51:58;8.68;;;3.80;;
23670;SDS011;12012;51.998;7.614;2024-02-21T11:54:31;8.20;;;3.80;;
23670;SDS011;12012;51.998;7.614;2024-02-21T11:56:56;5.60;;;3.83;;
23670;SDS011;12012;51.998;7.614;2024-02-21T11:59:22;10.77;;;4.18;;
23670;SDS011;12012;51.998;7.614;2024-02-21T12:01:48;9.10;;;4.45;;
23670;SDS011;12012;51.998;7.614;2024-02-21T12:04:15;10.55;;;4.75;;
23670;SDS011;12012;51.998;7.614;2024-02-21T12:06:42;8.45;;;4.68;;
23670;SDS011;12012;51.998;7.614;2024-02-21T12:09:09;8.93;;;5.10;;
23670;SDS011;12012;51.998;7.614;2024-02-21T12:11:34;13.45;;;5.97;;
23670;SDS011;12012;51.998;7.614;2024-02-21T12:14:03;9.02;;;4.93;;
23670;SDS011;12012;51.998;7.614;2024-02-21T12:16:33;10.93;;;4.85;;
23670;SDS011;12012;51.998;7.614;2024-02-21T12:18:59;11.15;;;5.80;;
23670;SDS011;12012;51.998;7.614;2024-02-21T12:21:34;12.82;;;6.47;;
23670;SDS011;12012;51.998;7.614;2024-02-21T12:27:03;12.27;;;5.80;;
23670;SDS011;12012;51.998;7.614;2024-02-21T12:29:29;11.25;;;6.45;;
23670;SDS011;12012;51.998;7.614;2024-02-21T12:31:55;11.68;;;6.05;;
23670;SDS011;12012;51.998;7.614;2024-02-21T12:34:20;12.80;;;6.38;;
23670;SDS011;12012;51.998;7.614;2024-02-21T12:36:47;14.73;;;6.85;;
23670;SDS011;12012;51.998;7.614;2024-02-21T12:39:13;11.63;;;6.07;;
23670;SDS011;12012;51.998;7.614;2024-02-21T12:41:39;12.32;;;6.10;;
23670;SDS011;12012;51.998;7.614;2024-02-21T12:44:09;10.32;;;5.93;;
23670;SDS011;12012;51.998;7.614;2024-02-21T12:46:36;14.15;;;6.35;;
23670;SDS011;12012;51.998;7.614;2024-02-21T12:49:02;12.05;;;6.13;;
23670;SDS011;12012;51.998;7.614;2024-02-21T12:51:31;10.90;;;5.53;;
23670;SDS011;12012;51.998;7.614;2024-02-21T12:53:57;11.70;;;5.47;;
23670;SDS011;12012;51.998;7.614;2024-02-21T12:56:23;14.20;;;5.57;;
23670;SDS011;12012;51.998;7.614;2024-02-21T12:58:51;10.90;;;5.05;;
23670;SDS011;12012;51.998;7.614;2024-02-21T13:01:17;8.93;;;4.95;;
23670;SDS011;12012;51.998;7.614;2024-02-21T13:03:43;11.82;;;5.65;;
23670;SDS011;12012;51.998;7.614;2024-02-21T13:06:08;10.70;;;5.43;;
23670;SDS011;12012;51.998;7.614;2024-02-21T13:08:37;12.23;;;5.28;;
23670;SDS011;12012;51.998;7.614;2024-02-21T13:11:03;9.70;;;4.55;;
23670;SDS011;12012;51.998;7.614;2024-02-21T13:13:29;11.95;;;5.28;;
23670;SDS011;12012;51.998;7.614;2024-02-21T13:15:55;11.85;;;5.55;;
23670;SDS011;12012;51.998;7.614;2024-02-21T13:18:21;10.75;;;5.68;;
23670;SDS011;12012;51.998;7.614;2024-02-21T13:20:47;11.95;;;5.53;;
23670;SDS011;12012;51.998;7.614;2024-02-21T13:23:13;12.60;;;6.25;;
23670;SDS011;12012;51.998;7.614;2024-02-21T13:25:38;12.35;;;6.68;;
23670;SDS011;12012;51.998;7.614;2024-02-21T13:28:04;11.82;;;5.97;;
23670;SDS011;12012;51.998;7.614;2024-02-21T13:30:30;15.30;;;7.15;;
23670;SDS011;12012;51.998;7.614;2024-02-21T13:32:55;14.30;;;6.75;;
23670;SDS011;12012;51.998;7.614;2024-02-21T13:35:21;12.73;;;7.03;;
23670;SDS011;12012;51.998;7.614;2024-02-21T13:37:46;16.13;;;7.90;;
23670;SDS011;12012;51.998;7.614;2024-02-21T13:40:12;13.20;;;6.88;;
23670;SDS011;12012;51.998;7.614;2024-02-21T13:42:39;12.85;;;7.70;;
23670;SDS011;12012;51.998;7.614;2024-02-21T13:45:05;13.88;;;7.75;;
23670;SDS011;12012;51.998;7.614;2024-02-21T13:47:32;11.05;;;7.25;;
23670;SDS011;12012;51.998;7.614;2024-02-21T13:49:58;10.95;;;7.05;;
23670;SDS011;12012;51.998;7.614;2024-02-21T13:52:24;15.73;;;7.55;;
23670;SDS011;12012;51.998;7.614;2024-02-21T13:54:52;13.60;;;7.80;;
23670;SDS011;12012;51.998;7.614;2024-02-21T13:57:18;19.20;;;7.78;;
23670;SDS011;12012;51.998;7.614;2024-02-21T13:59:43;15.90;;;8.15;;
23670;SDS011;12012;51.998;7.614;2024-02-21T14:02:09;14.60;;;8.05;;
23670;SDS011;12012;51.998;7.614;2024-02-21T14:04:35;11.18;;;7.20;;
23670;SDS011;12012;51.998;7.614;2024-02-21T14:07:01;13.93;;;7.53;;
23670;SDS011;12012;51.998;7.614;2024-02-21T14:09:26;13.90;;;7.90;;
23670;SDS011;12012;51.998;7.614;2024-02-21T14:11:54;18.85;;;7.75;;
23670;SDS011;12012;51.998;7.614;2024-02-21T14:14:20;15.82;;;7.05;;
23670;SDS011;12012;51.998;7.614;2024-02-21T14:16:45;15.98;;;7.00;;
23670;SDS011;12012;51.998;7.614;2024-02-21T14:19:13;11.38;;;6.47;;
23670;SDS011;12012;51.998;7.614;2024-02-21T14:21:38;13.20;;;6.38;;
23670;SDS011;12012;51.998;7.614;2024-02-21T14:24:04;14.00;;;6.20;;
23670;SDS011;12012;51.998;7.614;2024-02-21T14:26:31;12.75;;;5.38;;
23670;SDS011;12012;51.998;7.614;2024-02-21T14:28:57;16.15;;;6.03;;